sensor_id;sensor_type;location;lat;lon;timestamp;pressure;altitude;pressure_sealevel;temperature;humidity
49311;BME280;35177;45.900;5.946;2022-07-10T00:00:09;98033.94;;;16.60;100.00
49311;BME280;35177;45.900;5.946;2022-07-10T00:02:36;98024.44;;;16.85;100.00
49311;BME280;35177;45.900;5.946;2022-07-10T00:05:02;98025.28;;;16.52;100.00
49311;BME280;35177;45.900;5.946;2022-07-10T00:07:28;98018.81;;;16.40;100.00
49311;BME280;35177;45.900;5.946;2022-07-10T00:09:54;98016.50;;;16.54;100.00
49311;BME280;35177;45.900;5.946;2022-07-10T00:12:20;98014.25;;;16.81;100.00
49311;BME280;35177;45.900;5.946;2022-07-10T00:14:45;98016.72;;;16.49;100.00
49311;BME280;35177;45.900;5.946;2022-07-10T00:17:11;98015.06;;;16.14;100.00
49311;BME280;35177;45.900;5.946;2022-07-10T00:19:36;98015.34;;;15.70;100.00
49311;BME280;35177;45.900;5.946;2022-07-10T00:22:02;98019.97;;;15.45;100.00
49311;BME280;35177;45.900;5.946;2022-07-10T00:24:27;98012.16;;;15.51;100.00
49311;BME280;35177;45.900;5.946;2022-07-10T00:26:53;98012.91;;;15.69;100.00
49311;BME280;35177;45.900;5.946;2022-07-10T00:29:18;98017.34;;;15.70;100.00
49311;BME280;35177;45.900;5.946;2022-07-10T00:31:44;98008.66;;;15.63;100.00
49311;BME280;35177;45.900;5.946;2022-07-10T00:34:09;98015.72;;;15.39;100.00
49311;BME280;35177;45.900;5.946;2022-07-10T00:36:35;98012.66;;;15.23;100.00
49311;BME280;35177;45.900;5.946;2022-07-10T00:39:00;98011.41;;;15.41;100.00
49311;BME280;35177;45.900;5.946;2022-07-10T00:41:26;98014.22;;;15.41;100.00
49311;BME280;35177;45.900;5.946;2022-07-10T00:43:59;98009.13;;;15.35;100.00
49311;BME280;35177;45.900;5.946;2022-07-10T00:46:27;98015.28;;;14.81;100.00
49311;BME280;35177;45.900;5.946;2022-07-10T00:48:53;98005.22;;;14.97;100.00
49311;BME280;35177;45.900;5.946;2022-07-10T00:51:21;98000.88;;;15.08;100.00
49311;BME280;35177;45.900;5.946;2022-07-10T00:53:48;97996.53;;;15.20;100.00
49311;BME280;35177;45.900;5.946;2022-07-10T00:56:19;98000.16;;;14.82;100.00
49311;BME280;35177;45.900;5.946;2022-07-10T00:58:45;97998.31;;;14.94;100.00
49311;BME280;35177;45.900;5.946;2022-07-10T01:01:11;97991.16;;;15.15;100.00
49311;BME280;35177;45.900;5.946;2022-07-10T01:03:37;98005.31;;;15.09;100.00
49311;BME280;35177;45.900;5.946;2022-07-10T01:06:03;97981.28;;;15.17;100.00
49311;BME280;35177;45.900;5.946;2022-07-10T01:08:28;97984.06;;;15.17;100.00
49311;BME280;35177;45.900;5.946;2022-07-10T01:10:54;97990.31;;;14.75;100.00
49311;BME280;35177;45.900;5.946;2022-07-10T01:13:20;97989.16;;;14.76;100.00
49311;BME280;35177;45.900;5.946;2022-07-10T01:15:45;97990.16;;;14.63;100.00
49311;BME280;35177;45.900;5.946;2022-07-10T01:18:12;97981.59;;;14.77;100.00
49311;BME280;35177;45.900;5.946;2022-07-10T01:20:38;97985.09;;;14.65;100.00
49311;BME280;35177;45.900;5.946;2022-07-10T01:23:03;97976.19;;;14.63;100.00
49311;BME280;35177;45.900;5.946;2022-07-10T01:25:29;97983.16;;;14.39;100.00
49311;BME280;35177;45.900;5.946;2022-07-10T01:27:54;97990.38;;;14.32;100.00
49311;BME280;35177;45.900;5.946;2022-07-10T01:30:20;97984.63;;;14.19;100.00
49311;BME280;35177;45.900;5.946;2022-07-10T01:32:46;97983.69;;;14.06;100.00
49311;BME280;35177;45.900;5.946;2022-07-10T01:35:12;97990.88;;;13.90;100.00
49311;BME280;35177;45.900;5.946;2022-07-10T01:37:41;97983.34;;;14.17;100.00
49311;BME280;35177;45.900;5.946;2022-07-10T01:40:08;97986.47;;;13.89;100.00
49311;BME280;35177;45.900;5.946;2022-07-10T01:42:34;97994.00;;;14.06;100.00
49311;BME280;35177;45.900;5.946;2022-07-10T01:45:00;97985.16;;;14.12;100.00
49311;BME280;35177;45.900;5.946;2022-07-10T01:47:25;97985.81;;;14.01;100.00
49311;BME280;35177;45.900;5.946;2022-07-10T01:49:53;97992.69;;;13.94;100.00
49311;BME280;35177;45.900;5.946;2022-07-10T01:52:19;97987.44;;;14.19;100.00
49311;BME280;35177;45.900;5.946;2022-07-10T01:54:46;97992.53;;;14.00;100.00
49311;BME280;35177;45.900;5.946;2022-07-10T01:57:12;97994.03;;;14.14;100.00
49311;BME280;35177;45.900;5.946;2022-07-10T01:59:39;97988.94;;;14.08;100.00
49311;BME280;35177;45.900;5.946;2022-07-10T02:02:04;97993.53;;;14.04;100.00
49311;BME280;35177;45.900;5.946;2022-07-10T02:04:30;97992.84;;;14.16;100.00
49311;BME280;35177;45.900;5.946;2022-07-10T02:07:09;97993.53;;;13.95;100.00
49311;BME280;35177;45.900;5.946;2022-07-10T02:09:35;97993.03;;;13.75;100.00
49311;BME280;35177;45.900;5.946;2022-07-10T02:12:01;97989.75;;;13.82;100.00
49311;BME280;35177;45.900;5.946;2022-07-10T02:14:27;97995.66;;;13.63;100.00
49311;BME280;35177;45.900;5.946;2022-07-10T02:16:53;97993.84;;;13.67;100.00
49311;BME280;35177;45.900;5.946;2022-07-10T02:19:18;97995.47;;;13.59;100.00
49311;BME280;35177;45.900;5.946;2022-07-10T02:21:44;97990.88;;;13.72;100.00
49311;BME280;35177;45.900;5.946;2022-07-10T02:24:11;97992.69;;;14.03;100.00
49311;BME280;35177;45.900;5.946;2022-07-10T02:26:37;97988.09;;;13.63;100.00
49311;BME280;35177;45.900;5.946;2022-07-10T02:29:02;97993.81;;;13.49;100.00
49311;BME280;35177;45.900;5.946;2022-07-10T02:31:28;97994.28;;;13.52;100.00
49311;BME280;35177;45.900;5.946;2022-07-10T02:33:53;97994.28;;;13.52;100.00
49311;BME280;35177;45.900;5.946;2022-07-10T02:36:19;97993.28;;;13.39;100.00
49311;BME280;35177;45.900;5.946;2022-07-10T02:38:44;97988.91;;;13.64;100.00
49311;BME280;35177;45.900;5.946;2022-07-10T02:41:10;97995.94;;;13.53;100.00
49311;BME280;35177;45.900;5.946;2022-07-10T02:43:35;97990.09;;;13.23;100.00
49311;BME280;35177;45.900;5.946;2022-07-10T02:46:01;97993.84;;;13.09;100.00
49311;BME280;35177;45.900;5.946;2022-07-10T02:48:27;97989.91;;;13.10;100.00
49311;BME280;35177;45.900;5.946;2022-07-10T02:50:53;97990.94;;;13.32;100.00
49311;BME280;35177;45.900;5.946;2022-07-10T02:53:18;97993.72;;;13.32;100.00
49311;BME280;35177;45.900;5.946;2022-07-10T02:55:44;97991.81;;;13.01;100.00
49311;BME280;35177;45.900;5.946;2022-07-10T02:58:10;97999.25;;;13.14;100.00
49311;BME280;35177;45.900;5.946;2022-07-10T03:00:36;97990.47;;;13.30;100.00
49311;BME280;35177;45.900;5.946;2022-07-10T03:03:02;97990.75;;;13.28;100.00
49311;BME280;35177;45.900;5.946;2022-07-10T03:05:27;97991.88;;;13.18;100.00
49311;BME280;35177;45.900;5.946;2022-07-10T03:07:54;97996.09;;;13.07;100.00
49311;BME280;35177;45.900;5.946;2022-07-10T03:10:20;97991.69;;;13.15;100.00
49311;BME280;35177;45.900;5.946;2022-07-10T03:12:45;97992.34;;;13.12;100.00
49311;BME280;35177;45.900;5.946;2022-07-10T03:15:12;97991.41;;;13.16;100.00
49311;BME280;35177;45.900;5.946;2022-07-10T03:17:37;97998.66;;;12.86;100.00
49311;BME280;35177;45.900;5.946;2022-07-10T03:20:03;97993.78;;;12.92;100.00
49311;BME280;35177;45.900;5.946;2022-07-10T03:22:29;98001.41;;;12.77;100.00
49311;BME280;35177;45.900;5.946;2022-07-10T03:24:56;98004.81;;;12.74;100.00
49311;BME280;35177;45.900;5.946;2022-07-10T03:27:21;98001.34;;;12.68;100.00
49311;BME280;35177;45.900;5.946;2022-07-10T03:29:47;98001.75;;;12.53;100.00
49311;BME280;35177;45.900;5.946;2022-07-10T03:32:13;98000.66;;;12.63;100.00
49311;BME280;35177;45.900;5.946;2022-07-10T03:34:38;98003.44;;;12.63;100.00
49311;BME280;35177;45.900;5.946;2022-07-10T03:37:04;98002.75;;;12.57;100.00
49311;BME280;35177;45.900;5.946;2022-07-10T03:39:29;98001.16;;;12.65;100.00
49311;BME280;35177;45.900;5.946;2022-07-10T03:41:55;98002.06;;;12.83;100.00
49311;BME280;35177;45.900;5.946;2022-07-10T03:44:20;98003.66;;;12.75;100.00
49311;BME280;35177;45.900;5.946;2022-07-10T03:46:46;98001.84;;;12.70;100.00
49311;BME280;35177;45.900;5.946;2022-07-10T03:49:11;98003.59;;;12.58;100.00
49311;BME280;35177;45.900;5.946;2022-07-10T03:51:37;98005.72;;;12.61;100.00
49311;BME280;35177;45.900;5.946;2022-07-10T03:54:02;98010.19;;;12.70;100.00
49311;BME280;35177;45.900;5.946;2022-07-10T03:56:28;98010.06;;;12.44;100.00
49311;BME280;35177;45.900;5.946;2022-07-10T03:59:12;98005.28;;;12.45;100.00
49311;BME280;35177;45.900;5.946;2022-07-10T04:01:37;98002.88;;;12.52;100.00
49311;BME280;35177;45.900;5.946;2022-07-10T04:04:03;97998.69;;;12.32;100.00
49311;BME280;35177;45.900;5.946;2022-07-10T04:06:29;98010.63;;;12.32;100.00
49311;BME280;35177;45.900;5.946;2022-07-10T04:08:54;98007.44;;;12.48;100.00
49311;BME280;35177;45.900;5.946;2022-07-10T04:11:20;97998.16;;;12.30;100.00
49311;BME280;35177;45.900;5.946;2022-07-10T04:13:45;97998.78;;;12.49;100.00
49311;BME280;35177;45.900;5.946;2022-07-10T04:16:11;97999.97;;;12.57;100.00
49311;BME280;35177;45.900;5.946;2022-07-10T04:18:39;98001.75;;;12.84;100.00
49311;BME280;35177;45.900;5.946;2022-07-10T04:21:05;97999.28;;;12.83;100.00
49311;BME280;35177;45.900;5.946;2022-07-10T04:23:32;98001.56;;;12.81;100.00
49311;BME280;35177;45.900;5.946;2022-07-10T04:25:58;97999.19;;;12.97;100.00
49311;BME280;35177;45.900;5.946;2022-07-10T04:28:23;97998.56;;;13.09;100.00
49311;BME280;35177;45.900;5.946;2022-07-10T04:30:49;98002.81;;;13.06;100.00
49311;BME280;35177;45.900;5.946;2022-07-10T04:33:14;98002.09;;;13.32;100.00
49311;BME280;35177;45.900;5.946;2022-07-10T04:35:40;97996.47;;;13.72;100.00
49311;BME280;35177;45.900;5.946;2022-07-10T04:38:05;97994.69;;;14.03;100.00
49311;BME280;35177;45.900;5.946;2022-07-10T04:40:31;97995.31;;;14.35;100.00
49311;BME280;35177;45.900;5.946;2022-07-10T04:42:56;97987.22;;;14.51;100.00
49311;BME280;35177;45.900;5.946;2022-07-10T04:45:22;97995.19;;;14.96;100.00
49311;BME280;35177;45.900;5.946;2022-07-10T04:47:48;97988.84;;;15.47;100.00
49311;BME280;35177;45.900;5.946;2022-07-10T04:50:13;97994.63;;;15.41;100.00
49311;BME280;35177;45.900;5.946;2022-07-10T04:52:39;97994.00;;;15.66;100.00
49311;BME280;35177;45.900;5.946;2022-07-10T04:55:05;97983.72;;;16.00;100.00
49311;BME280;35177;45.900;5.946;2022-07-10T04:57:30;97996.56;;;16.01;100.00
49311;BME280;35177;45.900;5.946;2022-07-10T04:59:56;97995.91;;;16.37;100.00
49311;BME280;35177;45.900;5.946;2022-07-10T05:02:22;97997.88;;;16.58;100.00
49311;BME280;35177;45.900;5.946;2022-07-10T05:04:48;97997.53;;;16.72;100.00
49311;BME280;35177;45.900;5.946;2022-07-10T05:07:13;97991.81;;;16.68;100.00
49311;BME280;35177;45.900;5.946;2022-07-10T05:09:40;97989.47;;;16.58;100.00
49311;BME280;35177;45.900;5.946;2022-07-10T05:12:06;97994.84;;;17.22;100.00
49311;BME280;35177;45.900;5.946;2022-07-10T05:14:31;97990.50;;;17.12;100.00
49311;BME280;35177;45.900;5.946;2022-07-10T05:16:57;97992.88;;;17.22;100.00
49311;BME280;35177;45.900;5.946;2022-07-10T05:19:23;97992.38;;;17.32;100.00
49311;BME280;35177;45.900;5.946;2022-07-10T05:21:48;97995.31;;;17.24;100.00
49311;BME280;35177;45.900;5.946;2022-07-10T05:24:14;97990.19;;;17.26;100.00
49311;BME280;35177;45.900;5.946;2022-07-10T05:26:40;97984.69;;;17.17;100.00
49311;BME280;35177;45.900;5.946;2022-07-10T05:29:05;97985.38;;;17.26;100.00
49311;BME280;35177;45.900;5.946;2022-07-10T05:31:31;97984.69;;;17.29;100.00
49311;BME280;35177;45.900;5.946;2022-07-10T05:33:56;97985.59;;;17.33;100.00
49311;BME280;35177;45.900;5.946;2022-07-10T05:36:22;97990.28;;;17.42;100.00
49311;BME280;35177;45.900;5.946;2022-07-10T05:38:47;97995.44;;;17.40;100.00
49311;BME280;35177;45.900;5.946;2022-07-10T05:41:13;97992.25;;;17.29;100.00
49311;BME280;35177;45.900;5.946;2022-07-10T05:43:38;97987.25;;;17.34;100.00
49311;BME280;35177;45.900;5.946;2022-07-10T05:46:04;97988.97;;;17.02;100.00
49311;BME280;35177;45.900;5.946;2022-07-10T05:48:31;97979.75;;;17.01;100.00
49311;BME280;35177;45.900;5.946;2022-07-10T05:50:56;97983.31;;;16.90;100.00
49311;BME280;35177;45.900;5.946;2022-07-10T05:53:22;97991.78;;;17.02;100.00
49311;BME280;35177;45.900;5.946;2022-07-10T05:55:48;97988.03;;;16.98;100.00
49311;BME280;35177;45.900;5.946;2022-07-10T05:58:14;97982.66;;;16.93;100.00
49311;BME280;35177;45.900;5.946;2022-07-10T06:00:40;97982.91;;;17.12;100.00
49311;BME280;35177;45.900;5.946;2022-07-10T06:03:08;97975.19;;;17.34;100.00
49311;BME280;35177;45.900;5.946;2022-07-10T06:05:34;97975.75;;;16.90;100.00
49311;BME280;35177;45.900;5.946;2022-07-10T06:07:59;97977.59;;;16.86;100.00
49311;BME280;35177;45.900;5.946;2022-07-10T06:10:25;97980.56;;;17.14;100.00
49311;BME280;35177;45.900;5.946;2022-07-10T06:12:50;97980.25;;;17.28;100.00
49311;BME280;35177;45.900;5.946;2022-07-10T06:15:16;97970.63;;;17.66;100.00
49311;BME280;35177;45.900;5.946;2022-07-10T06:17:42;97966.53;;;17.64;100.00
49311;BME280;35177;45.900;5.946;2022-07-10T06:20:07;97973.66;;;17.61;100.00
49311;BME280;35177;45.900;5.946;2022-07-10T06:22:33;97966.16;;;17.65;100.00
49311;BME280;35177;45.900;5.946;2022-07-10T06:25:01;97970.13;;;17.64;100.00
49311;BME280;35177;45.900;5.946;2022-07-10T06:27:27;97967.81;;;17.66;100.00
49311;BME280;35177;45.900;5.946;2022-07-10T06:29:53;97966.53;;;17.64;100.00
49311;BME280;35177;45.900;5.946;2022-07-10T06:32:18;97971.50;;;17.83;100.00
49311;BME280;35177;45.900;5.946;2022-07-10T06:34:44;97964.03;;;17.87;100.00
49311;BME280;35177;45.900;5.946;2022-07-10T06:37:09;97965.09;;;17.95;100.00
49311;BME280;35177;45.900;5.946;2022-07-10T06:39:35;97960.13;;;17.92;100.00
49311;BME280;35177;45.900;5.946;2022-07-10T06:42:02;97964.13;;;18.03;100.00
49311;BME280;35177;45.900;5.946;2022-07-10T06:44:28;97965.56;;;17.85;100.00
49311;BME280;35177;45.900;5.946;2022-07-10T06:46:53;97959.94;;;17.97;100.00
49311;BME280;35177;45.900;5.946;2022-07-10T06:49:37;97958.81;;;18.14;100.00
49311;BME280;35177;45.900;5.946;2022-07-10T06:52:05;97949.72;;;18.33;100.00
49311;BME280;35177;45.900;5.946;2022-07-10T06:54:31;97952.53;;;18.33;100.00
49311;BME280;35177;45.900;5.946;2022-07-10T06:56:57;97954.97;;;18.35;100.00
49311;BME280;35177;45.900;5.946;2022-07-10T06:59:22;97956.53;;;18.48;100.00
49311;BME280;35177;45.900;5.946;2022-07-10T07:01:48;97947.63;;;18.74;100.00
49311;BME280;35177;45.900;5.946;2022-07-10T07:04:13;97942.00;;;18.74;100.00
49311;BME280;35177;45.900;5.946;2022-07-10T07:06:38;97942.19;;;18.82;100.00
49311;BME280;35177;45.900;5.946;2022-07-10T07:09:04;97944.22;;;18.97;100.00
49311;BME280;35177;45.900;5.946;2022-07-10T07:11:29;97949.38;;;19.11;100.00
49311;BME280;35177;45.900;5.946;2022-07-10T07:13:55;97938.44;;;19.41;100.00
49311;BME280;35177;45.900;5.946;2022-07-10T07:16:20;97940.88;;;19.59;100.00
49311;BME280;35177;45.900;5.946;2022-07-10T07:18:52;97941.94;;;19.70;100.00
49311;BME280;35177;45.900;5.946;2022-07-10T07:21:20;97934.03;;;19.96;100.00
49311;BME280;35177;45.900;5.946;2022-07-10T07:24:04;97924.34;;;20.13;100.00
49311;BME280;35177;45.900;5.946;2022-07-10T07:26:30;97923.69;;;20.19;100.00
49311;BME280;35177;45.900;5.946;2022-07-10T07:28:56;97927.00;;;20.25;100.00
49311;BME280;35177;45.900;5.946;2022-07-10T07:31:21;97910.38;;;20.39;100.00
49311;BME280;35177;45.900;5.946;2022-07-10T07:33:47;97919.28;;;20.42;100.00
49311;BME280;35177;45.900;5.946;2022-07-10T07:36:13;97918.66;;;20.52;100.00
49311;BME280;35177;45.900;5.946;2022-07-10T07:38:38;97912.22;;;20.51;100.00
49311;BME280;35177;45.900;5.946;2022-07-10T07:41:04;97915.28;;;20.66;100.00
49311;BME280;35177;45.900;5.946;2022-07-10T07:43:29;97918.38;;;20.80;100.00
49311;BME280;35177;45.900;5.946;2022-07-10T07:45:55;97916.00;;;20.82;100.00
49311;BME280;35177;45.900;5.946;2022-07-10T07:48:22;97918.75;;;21.02;100.00
49311;BME280;35177;45.900;5.946;2022-07-10T07:50:47;97912.91;;;21.14;100.00
49311;BME280;35177;45.900;5.946;2022-07-10T07:53:13;97917.31;;;21.12;97.12
49311;BME280;35177;45.900;5.946;2022-07-10T07:55:38;97913.56;;;21.31;100.00
49311;BME280;35177;45.900;5.946;2022-07-10T07:58:05;97917.16;;;21.28;99.76
49311;BME280;35177;45.900;5.946;2022-07-10T08:00:30;97913.50;;;21.27;100.00
49311;BME280;35177;45.900;5.946;2022-07-10T08:02:58;97912.59;;;21.46;100.00
49311;BME280;35177;45.900;5.946;2022-07-10T08:05:23;97914.22;;;21.47;96.36
49311;BME280;35177;45.900;5.946;2022-07-10T08:07:51;97900.66;;;21.57;95.49
49311;BME280;35177;45.900;5.946;2022-07-10T08:10:19;97909.25;;;21.64;96.86
49311;BME280;35177;45.900;5.946;2022-07-10T08:12:45;97901.59;;;21.64;94.92
49311;BME280;35177;45.900;5.946;2022-07-10T08:15:12;97896.06;;;21.72;99.16
49311;BME280;35177;45.900;5.946;2022-07-10T08:17:39;97899.00;;;21.82;88.91
49311;BME280;35177;45.900;5.946;2022-07-10T08:20:06;97902.69;;;21.87;89.71
49311;BME280;35177;45.900;5.946;2022-07-10T08:22:33;97908.06;;;21.95;86.45
49311;BME280;35177;45.900;5.946;2022-07-10T08:24:58;97905.63;;;21.94;83.37
49311;BME280;35177;45.900;5.946;2022-07-10T08:27:24;97898.44;;;22.00;93.10
49311;BME280;35177;45.900;5.946;2022-07-10T08:29:50;97896.84;;;22.03;86.72
49311;BME280;35177;45.900;5.946;2022-07-10T08:32:15;97901.84;;;22.17;88.37
49311;BME280;35177;45.900;5.946;2022-07-10T08:34:41;97903.97;;;22.27;84.42
49311;BME280;35177;45.900;5.946;2022-07-10T08:37:06;97899.94;;;22.28;84.65
49311;BME280;35177;45.900;5.946;2022-07-10T08:39:32;97891.22;;;22.40;86.40
49311;BME280;35177;45.900;5.946;2022-07-10T08:41:59;97895.66;;;22.38;86.28
49311;BME280;35177;45.900;5.946;2022-07-10T08:44:24;97888.13;;;22.49;82.77
49311;BME280;35177;45.900;5.946;2022-07-10T08:46:50;97888.84;;;22.42;84.83
49311;BME280;35177;45.900;5.946;2022-07-10T08:49:16;97883.63;;;22.44;89.23
49311;BME280;35177;45.900;5.946;2022-07-10T08:54:33;97882.78;;;22.44;84.40
49311;BME280;35177;45.900;5.946;2022-07-10T08:57:01;97886.53;;;22.52;87.83
49311;BME280;35177;45.900;5.946;2022-07-10T08:59:28;97885.69;;;22.51;85.58
49311;BME280;35177;45.900;5.946;2022-07-10T09:01:54;97888.53;;;22.51;86.72
49311;BME280;35177;45.900;5.946;2022-07-10T09:04:22;97881.53;;;22.79;100.00
49311;BME280;35177;45.900;5.946;2022-07-10T09:06:48;97880.41;;;22.91;100.00
49311;BME280;35177;45.900;5.946;2022-07-10T09:09:13;97882.34;;;22.83;81.53
49311;BME280;35177;45.900;5.946;2022-07-10T09:11:40;97885.66;;;22.89;80.84
49311;BME280;35177;45.900;5.946;2022-07-10T09:14:10;97877.22;;;22.96;78.75
49311;BME280;35177;45.900;5.946;2022-07-10T09:16:40;97875.22;;;23.00;74.47
49311;BME280;35177;45.900;5.946;2022-07-10T09:22:02;97880.56;;;23.13;76.55
49311;BME280;35177;45.900;5.946;2022-07-10T09:24:35;97881.50;;;23.27;74.05
49311;BME280;35177;45.900;5.946;2022-07-10T09:27:01;97884.84;;;23.40;70.73
49311;BME280;35177;45.900;5.946;2022-07-10T09:29:33;97893.41;;;23.48;71.44
49311;BME280;35177;45.900;5.946;2022-07-10T09:32:09;97882.59;;;23.68;75.53
49311;BME280;35177;45.900;5.946;2022-07-10T09:34:47;97879.09;;;23.93;69.08
49311;BME280;35177;45.900;5.946;2022-07-10T09:37:25;97882.34;;;23.98;66.97
49311;BME280;35177;45.900;5.946;2022-07-10T09:42:34;97874.38;;;24.36;69.96
49311;BME280;35177;45.900;5.946;2022-07-10T09:45:21;97874.91;;;24.82;71.95
49311;BME280;35177;45.900;5.946;2022-07-10T09:47:58;97876.50;;;25.01;71.51
49311;BME280;35177;45.900;5.946;2022-07-10T09:50:30;97873.25;;;25.35;66.18
49311;BME280;35177;45.900;5.946;2022-07-10T09:53:02;97872.81;;;25.55;58.30
49311;BME280;35177;45.900;5.946;2022-07-10T09:55:31;97870.31;;;25.75;62.55
49311;BME280;35177;45.900;5.946;2022-07-10T09:58:03;97861.78;;;25.78;56.76
49311;BME280;35177;45.900;5.946;2022-07-10T10:00:37;97869.38;;;26.18;53.44
49311;BME280;35177;45.900;5.946;2022-07-10T10:03:05;97866.44;;;26.39;58.81
49311;BME280;35177;45.900;5.946;2022-07-10T10:05:43;97856.88;;;26.68;60.56
49311;BME280;35177;45.900;5.946;2022-07-10T10:08:17;97858.03;;;26.81;49.68
49311;BME280;35177;45.900;5.946;2022-07-10T10:10:45;97855.22;;;26.77;50.27
49311;BME280;35177;45.900;5.946;2022-07-10T10:13:16;97852.63;;;27.43;51.86
49311;BME280;35177;45.900;5.946;2022-07-10T10:15:42;97850.41;;;27.62;49.93
49311;BME280;35177;45.900;5.946;2022-07-10T10:18:10;97849.88;;;27.74;46.18
49311;BME280;35177;45.900;5.946;2022-07-10T10:20:36;97848.97;;;27.81;43.24
49311;BME280;35177;45.900;5.946;2022-07-10T10:23:04;97845.66;;;27.82;44.76
49311;BME280;35177;45.900;5.946;2022-07-10T10:25:32;97835.84;;;28.49;47.45
49311;BME280;35177;45.900;5.946;2022-07-10T10:28:00;97837.69;;;28.35;45.70
49311;BME280;35177;45.900;5.946;2022-07-10T10:30:27;97847.06;;;28.36;41.53
49311;BME280;35177;45.900;5.946;2022-07-10T10:32:53;97836.38;;;28.71;41.40
49311;BME280;35177;45.900;5.946;2022-07-10T10:35:46;97843.16;;;28.50;42.65
49311;BME280;35177;45.900;5.946;2022-07-10T10:38:13;97828.25;;;29.17;41.22
49311;BME280;35177;45.900;5.946;2022-07-10T10:40:40;97841.09;;;29.05;40.97
49311;BME280;35177;45.900;5.946;2022-07-10T10:43:23;97832.75;;;28.91;40.78
49311;BME280;35177;45.900;5.946;2022-07-10T10:45:49;97836.88;;;29.13;44.07
49311;BME280;35177;45.900;5.946;2022-07-10T10:48:17;97829.06;;;29.41;41.47
49311;BME280;35177;45.900;5.946;2022-07-10T10:50:47;97841.78;;;29.60;40.63
49311;BME280;35177;45.900;5.946;2022-07-10T10:53:24;97833.38;;;29.29;41.91
49311;BME280;35177;45.900;5.946;2022-07-10T10:58:36;97830.31;;;29.40;41.12
49311;BME280;35177;45.900;5.946;2022-07-10T11:01:23;97823.94;;;29.53;43.12
49311;BME280;35177;45.900;5.946;2022-07-10T11:06:40;97826.19;;;29.17;46.75
49311;BME280;35177;45.900;5.946;2022-07-10T11:09:35;97819.97;;;29.46;41.38
49311;BME280;35177;45.900;5.946;2022-07-10T11:12:08;97810.50;;;30.30;39.18
49311;BME280;35177;45.900;5.946;2022-07-10T11:14:34;97814.59;;;30.12;39.29
49311;BME280;35177;45.900;5.946;2022-07-10T11:17:02;97811.56;;;30.00;38.53
49311;BME280;35177;45.900;5.946;2022-07-10T11:19:29;97820.06;;;29.63;40.24
49311;BME280;35177;45.900;5.946;2022-07-10T11:22:19;97812.88;;;29.55;41.90
49311;BME280;35177;45.900;5.946;2022-07-10T11:30:12;97803.63;;;29.87;41.31
49311;BME280;35177;45.900;5.946;2022-07-10T11:32:37;97793.50;;;29.62;43.21
49311;BME280;35177;45.900;5.946;2022-07-10T11:35:06;97806.81;;;29.93;43.39
49311;BME280;35177;45.900;5.946;2022-07-10T11:37:33;97787.47;;;30.17;43.43
49311;BME280;35177;45.900;5.946;2022-07-10T11:40:11;97784.97;;;30.56;41.18
49311;BME280;35177;45.900;5.946;2022-07-10T11:42:54;97791.59;;;30.53;38.47
49311;BME280;35177;45.900;5.946;2022-07-10T11:47:49;97785.59;;;30.64;36.69
49311;BME280;35177;45.900;5.946;2022-07-10T11:50:14;97787.66;;;30.80;43.66
49311;BME280;35177;45.900;5.946;2022-07-10T11:52:40;97784.44;;;30.61;39.14
49311;BME280;35177;45.900;5.946;2022-07-10T11:55:16;97775.91;;;30.41;36.98
49311;BME280;35177;45.900;5.946;2022-07-10T11:57:42;97770.91;;;30.61;39.37
49311;BME280;35177;45.900;5.946;2022-07-10T12:00:28;97771.03;;;30.58;44.42
49311;BME280;35177;45.900;5.946;2022-07-10T12:02:55;97766.47;;;30.24;37.28
49311;BME280;35177;45.900;5.946;2022-07-10T12:07:56;97777.56;;;29.81;42.93
49311;BME280;35177;45.900;5.946;2022-07-10T12:10:26;97764.72;;;30.10;40.03
49311;BME280;35177;45.900;5.946;2022-07-10T12:12:52;97771.28;;;30.27;43.53
49311;BME280;35177;45.900;5.946;2022-07-10T12:15:37;97768.44;;;30.27;39.61
49311;BME280;35177;45.900;5.946;2022-07-10T12:18:07;97769.59;;;30.29;42.33
49311;BME280;35177;45.900;5.946;2022-07-10T12:20:34;97765.25;;;29.85;37.95
49311;BME280;35177;45.900;5.946;2022-07-10T12:23:00;97769.56;;;30.13;38.33
49311;BME280;35177;45.900;5.946;2022-07-10T12:25:26;97777.22;;;29.79;38.08
49311;BME280;35177;45.900;5.946;2022-07-10T12:27:58;97780.53;;;28.90;43.86
49311;BME280;35177;45.900;5.946;2022-07-10T12:30:44;97768.03;;;29.28;40.65
49311;BME280;35177;45.900;5.946;2022-07-10T12:33:13;97762.50;;;29.17;40.15
49311;BME280;35177;45.900;5.946;2022-07-10T12:36:11;97763.06;;;29.32;40.22
49311;BME280;35177;45.900;5.946;2022-07-10T12:38:37;97764.84;;;29.66;40.14
49311;BME280;35177;45.900;5.946;2022-07-10T12:41:10;97759.75;;;30.14;39.09
49311;BME280;35177;45.900;5.946;2022-07-10T12:43:37;97753.38;;;30.06;41.79
49311;BME280;35177;45.900;5.946;2022-07-10T12:49:06;97769.81;;;29.42;39.51
49311;BME280;35177;45.900;5.946;2022-07-10T12:51:42;97765.25;;;29.44;42.15
49311;BME280;35177;45.900;5.946;2022-07-10T12:54:08;97756.47;;;29.55;37.43
49311;BME280;35177;45.900;5.946;2022-07-10T12:56:37;97750.41;;;30.10;39.04
49311;BME280;35177;45.900;5.946;2022-07-10T12:59:13;97757.56;;;30.02;41.03
49311;BME280;35177;45.900;5.946;2022-07-10T13:01:41;97763.50;;;29.51;38.42
49311;BME280;35177;45.900;5.946;2022-07-10T13:04:07;97761.63;;;29.20;36.74
49311;BME280;35177;45.900;5.946;2022-07-10T13:06:34;97763.94;;;29.69;38.69
49311;BME280;35177;45.900;5.946;2022-07-10T13:09:01;97762.69;;;29.70;37.01
49311;BME280;35177;45.900;5.946;2022-07-10T13:11:27;97746.59;;;30.17;38.95
49311;BME280;35177;45.900;5.946;2022-07-10T13:13:53;97751.44;;;30.36;38.59
49311;BME280;35177;45.900;5.946;2022-07-10T13:16:18;97752.91;;;30.44;40.82
49311;BME280;35177;45.900;5.946;2022-07-10T13:18:44;97753.69;;;29.92;36.62
49311;BME280;35177;45.900;5.946;2022-07-10T13:21:10;97743.34;;;29.38;35.80